Portada
METAR-TAF:

METAR-TAF

Aeroports :

Benarés, Índia

latitud: 25-27N, longitud: 082-52E, altitud: 81 m

Observació

L'informe es va fer fa 57 minuts, a les 19:00 UTC
Vent 4 kt del Sud-Oest
Temperatura 19°C
Humitat 68%
Pressió 1009 hPa
Visibilitat: 3000 m
calitja

METAR: VEBN 241900Z 23004KT 3000 HZ NSC 19/13 Q1009 NOSIG

Hora: 01:27 (19:57 UTC)

Pronòstic

L'informe es va fer fa 2 hores i 57 minuts, a les 17:00 UTC
Pronòstic vàlid del 24 a les 18 UTC al 25 a les 03 UTC
Vent 3 kt del Oest
Visibilitat: 2500 m
calitja, boirina
Evolucionant progressivament
l' 25 a les 00 UTC al 25 a les 02 UTC
Visibilitat: 1500 m
boirina

TAF: VEBN 241700Z 2418/2503 26003KT 2500 HZ BR NSC BECMG 2500/2502 1500 BR

Observacions i pronòstics meteorològics de més de 4000 aeroports (METAR i TAF).

Les estacions disponibles són els punts grocs i vermells al mapa.

Posi el ratolí al punt desitjat per veure el nom de l'estació.

Feu clic per veure les observacions i els pronòstics meteorològics.

Per canviar el mapa: feu clic els botons verds amb una creu de color negre per apropar; al botó verd amb un guió per allunyar la imatge; o en les fletxes verdes per a mapes adjacents.


METAR-TAF: